Time;durP1;ratioP1;P1;durP2;ratioP2;P2;SDS_P1;SDS_P2;PMS_P1;PMS_P2;Temp;Humidity;BMP_temperature;BMP_pressure;BME280_temperature;BME280_humidity;BME280_pressure;Samples;Min_cycle;Max_cycle;Signal;HPM_P1;HPM_P2
2021/10/16 00:01:43;;;;;;;29.07;18.95;;;;;;;6.98;89.09;97783.17;1769395;81;21005;-77
2021/10/16 00:04:10;;;;;;;33.95;18.75;;;;;;;6.97;89.13;97781.44;1769310;81;20962;-77
2021/10/16 00:06:36;;;;;;;35.80;20.10;;;;;;;6.96;89.19;97787.61;1769291;81;21547;-76
2021/10/16 00:09:04;;;;;;;37.00;20.80;;;;;;;6.95;88.98;97784.56;1769488;81;20974;-77
2021/10/16 00:11:30;;;;;;;29.60;18.75;;;;;;;6.94;88.87;97781.48;1768994;81;21014;-77
2021/10/16 00:13:57;;;;;;;34.15;19.45;;;;;;;6.94;88.47;97776.69;1761022;81;21068;-77
2021/10/16 00:16:23;;;;;;;34.35;20.10;;;;;;;6.93;88.99;97778.91;1761249;81;21043;-77
2021/10/16 00:18:50;;;;;;;36.35;20.55;;;;;;;6.90;89.30;97777.20;1761131;81;21034;-77
2021/10/16 00:21:17;;;;;;;34.03;20.57;;;;;;;6.92;89.04;97780.66;1761332;81;21018;-76
2021/10/16 00:23:43;;;;;;;31.90;20.35;;;;;;;6.96;88.67;97774.87;1761273;81;21042;-76
2021/10/16 00:26:10;;;;;;;33.20;20.45;;;;;;;6.99;89.13;97765.14;1761143;81;21030;-76
2021/10/16 00:28:37;;;;;;;33.90;19.90;;;;;;;7.02;89.81;97766.84;1761353;81;22144;-76
2021/10/16 00:31:07;;;;;;;33.60;19.55;;;;;;;7.06;89.65;97761.09;1761112;81;21113;-77
2021/10/16 00:33:33;;;;;;;32.78;18.82;;;;;;;7.08;88.75;97752.70;1760939;81;21436;-77
2021/10/16 00:36:00;;;;;;;30.17;18.75;;;;;;;7.13;89.88;97753.04;1761243;81;20994;-77
2021/10/16 00:38:26;;;;;;;30.08;17.85;;;;;;;7.19;89.39;97758.62;1761321;81;20997;-77
2021/10/16 00:40:53;;;;;;;29.63;18.90;;;;;;;7.23;89.08;97756.34;1760807;81;20987;-76
2021/10/16 00:43:19;;;;;;;29.75;18.73;;;;;;;7.26;89.33;97757.61;1761215;81;20990;-76
2021/10/16 00:45:46;;;;;;;30.55;18.50;;;;;;;7.32;89.10;97761.91;1761191;81;21459;-76
2021/10/16 00:48:13;;;;;;;28.40;17.50;;;;;;;7.34;89.32;97751.30;1761078;81;21005;-76
2021/10/16 00:50:39;;;;;;;30.82;18.67;;;;;;;7.36;89.37;97753.48;1761172;81;21045;-76
2021/10/16 00:53:06;;;;;;;28.67;18.98;;;;;;;7.39;89.48;97751.63;1761323;81;21447;-76
2021/10/16 00:55:32;;;;;;;27.62;17.52;;;;;;;7.43;89.53;97740.56;1761209;81;21029;-77
2021/10/16 00:58:00;;;;;;;30.50;18.45;;;;;;;7.46;89.68;97740.52;1761253;81;21466;-77
2021/10/16 01:00:27;;;;;;;28.85;18.02;;;;;;;7.54;90.08;97749.58;1761173;81;21431;-77
2021/10/16 01:02:53;;;;;;;32.73;18.75;;;;;;;7.61;89.79;97747.24;1761089;81;21009;-77
2021/10/16 01:05:20;;;;;;;29.72;18.40;;;;;;;7.63;89.40;97741.91;1761190;81;21033;-77
2021/10/16 01:07:48;;;;;;;30.43;18.60;;;;;;;7.63;89.60;97749.83;1761097;81;21132;-77
2021/10/16 01:10:16;;;;;;;29.32;18.02;;;;;;;7.57;89.44;97735.46;1760891;80;21089;-77
2021/10/16 01:12:44;;;;;;;34.98;19.25;;;;;;;7.52;89.63;97736.42;1760878;81;21061;-76
2021/10/16 01:15:16;;;;;;;34.67;19.80;;;;;;;7.52;89.67;97735.10;1761130;81;21054;-76
2021/10/16 01:17:47;;;;;;;34.27;19.57;;;;;;;7.51;89.50;97730.73;1761326;81;21033;-77
2021/10/16 01:20:18;;;;;;;32.30;20.70;;;;;;;7.47;89.40;97730.84;1761207;81;21038;-76
2021/10/16 01:22:45;;;;;;;35.63;21.45;;;;;;;7.44;89.00;97739.69;1761214;81;21427;-77
2021/10/16 01:25:19;;;;;;;34.95;21.00;;;;;;;7.39;89.21;97735.81;1761305;81;21645;-77
2021/10/16 01:27:47;;;;;;;37.90;22.07;;;;;;;7.36;89.06;97737.66;1761586;81;21021;-77
2021/10/16 01:30:18;;;;;;;37.53;21.55;;;;;;;7.32;89.26;97734.22;1761115;81;21045;-76
2021/10/16 01:32:45;;;;;;;37.85;22.25;;;;;;;7.29;89.16;97732.95;1761209;81;21045;-77
2021/10/16 01:35:13;;;;;;;38.42;22.70;;;;;;;7.24;89.51;97723.84;1761313;81;21009;-77
2021/10/16 01:37:42;;;;;;;39.42;23.60;;;;;;;7.21;89.10;97727.84;1761158;81;21029;-76
2021/10/16 01:40:12;;;;;;;37.58;22.98;;;;;;;7.20;89.32;97727.87;1761230;81;21037;-77
2021/10/16 01:42:43;;;;;;;40.25;23.60;;;;;;;7.18;89.30;97731.00;1761251;81;20986;-77
2021/10/16 01:45:17;;;;;;;42.13;24.85;;;;;;;7.15;89.10;97727.09;1761129;81;21056;-77
2021/10/16 01:47:48;;;;;;;39.67;23.45;;;;;;;7.12;89.14;97725.39;1761443;81;21373;-77
2021/10/16 01:50:17;;;;;;;41.08;24.05;;;;;;;7.09;89.04;97721.48;1735313;81;20986;-77
2021/10/16 01:52:44;;;;;;;41.58;24.30;;;;;;;7.08;88.94;97725.03;1761356;81;21423;-77
2021/10/16 01:55:10;;;;;;;37.55;21.77;;;;;;;7.02;88.96;97726.00;1761390;81;21014;-77
2021/10/16 01:57:37;;;;;;;41.53;24.55;;;;;;;7.00;89.14;97732.65;1761365;81;20962;-77
2021/10/16 02:00:09;;;;;;;41.48;24.92;;;;;;;6.95;89.29;97725.72;1761088;81;20990;-77
2021/10/16 02:02:36;;;;;;;42.60;23.77;;;;;;;6.92;89.60;97726.66;1761365;81;21025;-77
2021/10/16 02:05:22;;;;;;;40.85;24.12;;;;;;;6.93;89.83;97716.52;1761369;81;21042;-77
2021/10/16 02:07:50;;;;;;;44.70;24.20;;;;;;;6.94;89.72;97725.31;1757036;81;20998;-77
2021/10/16 02:10:17;;;;;;;45.60;26.77;;;;;;;6.93;89.39;97728.84;1761389;81;21423;-77
2021/10/16 02:12:45;;;;;;;45.70;25.10;;;;;;;6.91;89.65;97717.02;1761146;81;20979;-77
2021/10/16 02:15:12;;;;;;;39.83;23.80;;;;;;;6.91;89.55;97719.66;1761331;81;21072;-77
2021/10/16 02:17:40;;;;;;;42.27;24.77;;;;;;;6.91;90.15;97724.04;1759201;81;21018;-77
2021/10/16 02:20:09;;;;;;;44.25;24.65;;;;;;;6.90;90.13;97724.95;1761307;81;20969;-77
2021/10/16 02:22:36;;;;;;;44.40;24.87;;;;;;;6.90;89.70;97723.19;1761363;81;20994;-77
2021/10/16 02:25:03;;;;;;;47.88;27.27;;;;;;;6.90;89.88;97723.19;1761514;81;21000;-77
2021/10/16 02:27:31;;;;;;;46.45;28.70;;;;;;;6.90;90.04;97727.14;1761265;81;20978;-77
2021/10/16 02:29:58;;;;;;;48.70;30.65;;;;;;;6.90;89.78;97725.83;1761553;81;20993;-77
2021/10/16 02:32:25;;;;;;;45.48;28.05;;;;;;;6.93;89.88;97723.58;1761116;81;21065;-77
2021/10/16 02:34:52;;;;;;;49.40;28.50;;;;;;;6.97;89.99;97727.43;1761530;81;20973;-77
2021/10/16 02:37:20;;;;;;;42.65;26.77;;;;;;;7.00;90.07;97718.16;1761423;81;21450;-77
2021/10/16 02:39:47;;;;;;;40.35;24.72;;;;;;;7.04;89.83;97723.34;1761319;81;20982;-77
2021/10/16 02:42:13;;;;;;;39.78;23.52;;;;;;;7.06;90.24;97722.42;1761428;81;21030;-77
2021/10/16 02:44:41;;;;;;;37.15;22.82;;;;;;;7.10;90.05;97720.61;1761355;81;21074;-77
2021/10/16 02:47:07;;;;;;;37.88;23.98;;;;;;;7.16;90.22;97718.28;1761752;81;21030;-77
2021/10/16 02:49:34;;;;;;;34.45;22.07;;;;;;;7.20;90.30;97714.69;1764748;81;21013;-76
2021/10/16 02:52:01;;;;;;;33.80;21.73;;;;;;;7.24;90.48;97724.28;1764457;81;20975;-78
2021/10/16 02:54:28;;;;;;;35.17;22.07;;;;;;;7.27;90.44;97725.55;1764481;81;21002;-76
2021/10/16 02:56:54;;;;;;;34.67;21.17;;;;;;;7.30;90.45;97723.30;1764446;81;21060;-77
2021/10/16 02:59:21;;;;;;;36.38;23.22;;;;;;;7.35;90.70;97721.42;1764237;81;21014;-77
2021/10/16 03:01:50;;;;;;;36.85;22.58;;;;;;;7.38;90.70;97717.39;1764155;81;21089;-75
2021/10/16 03:04:17;;;;;;;33.55;20.88;;;;;;;7.42;90.68;97720.85;1764674;81;21017;-74
2021/10/16 03:06:44;;;;;;;34.98;22.77;;;;;;;7.46;90.71;97714.58;1762689;81;21006;-77
2021/10/16 03:09:11;;;;;;;33.40;20.48;;;;;;;7.50;90.83;97725.05;1761957;81;21443;-75
2021/10/16 03:11:39;;;;;;;36.85;22.17;;;;;;;7.52;90.74;97722.39;1761823;81;21025;-76
2021/10/16 03:14:06;;;;;;;33.00;21.48;;;;;;;7.55;91.05;97724.94;1761672;81;20990;-76
2021/10/16 03:16:32;;;;;;;35.80;22.02;;;;;;;7.60;91.29;97717.79;1762590;81;21065;-76
2021/10/16 03:19:00;;;;;;;35.48;22.48;;;;;;;7.65;91.03;97717.23;1762363;81;21014;-77
2021/10/16 03:21:27;;;;;;;37.13;22.73;;;;;;;7.66;90.42;97718.12;1761437;81;21069;-76
2021/10/16 03:23:55;;;;;;;36.83;23.10;;;;;;;7.59;89.92;97713.86;1761469;81;20950;-77
2021/10/16 03:26:21;;;;;;;38.73;23.45;;;;;;;7.51;89.78;97721.51;1761256;81;21034;-77
2021/10/16 03:28:48;;;;;;;40.35;23.02;;;;;;;7.41;89.86;97716.02;1760941;81;21068;-77
2021/10/16 03:31:14;;;;;;;39.40;24.00;;;;;;;7.36;89.83;97716.56;1761322;81;20954;-77
2021/10/16 03:33:41;;;;;;;39.55;23.22;;;;;;;7.31;90.98;97729.83;1761234;81;21026;-77
2021/10/16 03:36:08;;;;;;;41.18;24.12;;;;;;;7.29;90.98;97710.55;1761222;81;21136;-77
2021/10/16 03:38:35;;;;;;;38.70;24.23;;;;;;;7.29;91.29;97718.45;1761390;81;21384;-77
2021/10/16 03:41:01;;;;;;;40.23;24.87;;;;;;;7.26;90.69;97715.88;1761274;81;20998;-77
2021/10/16 03:43:28;;;;;;;40.28;24.75;;;;;;;7.26;90.58;97715.88;1735457;81;21089;-77
2021/10/16 03:45:54;;;;;;;40.08;24.55;;;;;;;7.24;90.76;97717.25;1761284;81;21412;-76
2021/10/16 03:48:21;;;;;;;42.25;24.07;;;;;;;7.22;90.53;97718.15;1761336;81;21427;-76
2021/10/16 03:50:48;;;;;;;40.10;23.38;;;;;;;7.20;90.13;97712.05;1761058;81;21085;-76
2021/10/16 03:53:16;;;;;;;35.68;23.38;;;;;;;7.16;90.03;97716.97;1761200;81;21053;-77
2021/10/16 03:55:43;;;;;;;39.67;24.60;;;;;;;7.11;89.88;97711.34;1761211;81;21105;-75
2021/10/16 03:58:10;;;;;;;37.80;23.07;;;;;;;7.08;90.07;97714.48;1761168;81;21495;-75
2021/10/16 04:00:37;;;;;;;38.23;23.32;;;;;;;7.07;90.51;97718.03;1761199;81;21034;-76
2021/10/16 04:03:05;;;;;;;42.73;24.50;;;;;;;7.07;91.02;97719.34;1761392;81;20998;-76
2021/10/16 04:05:34;;;;;;;38.60;23.30;;;;;;;7.06;90.68;97725.05;1761142;81;21515;-76
2021/10/16 04:08:01;;;;;;;40.17;23.30;;;;;;;7.04;91.13;97715.01;1761297;81;20982;-77
2021/10/16 04:10:27;;;;;;;40.65;24.80;;;;;;;7.03;90.74;97714.59;1761116;81;21475;-77
2021/10/16 04:12:54;;;;;;;39.53;23.67;;;;;;;;;;1761156;81;21005;-74
2021/10/16 04:15:20;;;;;;;41.05;24.30;;;;;;;6.97;91.71;97723.91;1761107;81;20963;-75
2021/10/16 04:17:47;;;;;;;41.80;23.90;;;;;;;6.95;91.13;97717.38;1761130;81;20994;-75
2021/10/16 04:20:13;;;;;;;41.48;23.80;;;;;;;6.97;90.82;97723.91;1761176;81;21057;-75
2021/10/16 04:22:42;;;;;;;39.03;23.73;;;;;;;6.98;91.17;97719.09;1760422;81;21447;-77
2021/10/16 04:25:09;;;;;;;37.42;23.38;;;;;;;6.98;90.91;97726.52;1761253;81;21002;-77
2021/10/16 04:27:37;;;;;;;38.80;22.65;;;;;;;7.00;91.23;97718.59;1761225;81;21399;-77
2021/10/16 04:30:08;;;;;;;39.23;23.75;;;;;;;6.99;91.61;97724.77;1758621;81;21503;-77
2021/10/16 04:32:36;;;;;;;40.92;23.55;;;;;;;6.98;92.51;97726.99;1761085;81;20974;-77
2021/10/16 04:35:06;;;;;;;39.95;23.65;;;;;;;6.99;91.66;97721.66;1761271;81;21062;-77
2021/10/16 04:37:34;;;;;;;39.10;24.00;;;;;;;6.98;92.04;97719.94;1761207;81;21049;-77
2021/10/16 04:40:13;;;;;;;42.93;24.35;;;;;;;7.00;91.34;97723.43;1761107;81;21010;-77
2021/10/16 04:42:38;;;;;;;42.48;24.80;;;;;;;7.01;92.11;97721.64;1760935;81;21009;-77
2021/10/16 04:45:08;;;;;;;42.85;24.87;;;;;;;6.98;92.27;97718.62;1761334;81;21010;-75
2021/10/16 04:47:34;;;;;;;44.00;25.10;;;;;;;7.00;92.62;97722.55;1761205;81;21030;-75
2021/10/16 04:50:01;;;;;;;49.93;26.40;;;;;;;7.04;91.97;97714.13;1761322;81;21009;-75
2021/10/16 04:52:29;;;;;;;46.05;26.25;;;;;;;7.07;93.36;97716.71;1761222;81;21364;-76
2021/10/16 04:54:55;;;;;;;44.18;24.15;;;;;;;7.09;92.05;97721.05;1761057;81;21396;-77
2021/10/16 04:57:22;;;;;;;38.85;22.52;;;;;;;7.11;92.03;97718.39;1761248;81;21120;-77
2021/10/16 04:59:50;;;;;;;41.42;23.32;;;;;;;7.15;92.11;97722.70;1761177;81;21025;-77
2021/10/16 05:02:16;;;;;;;41.80;22.77;;;;;;;7.22;91.84;97724.73;1761294;81;20978;-77
2021/10/16 05:04:43;;;;;;;40.83;23.80;;;;;;;7.31;91.90;97729.83;1761221;81;21501;-77
2021/10/16 05:07:10;;;;;;;37.80;21.97;;;;;;;7.39;92.28;97721.31;1761114;81;21034;-77
2021/10/16 05:09:37;;;;;;;36.70;21.33;;;;;;;7.44;92.07;97721.67;1761307;81;21054;-75
2021/10/16 05:12:04;;;;;;;41.53;22.55;;;;;;;7.51;91.92;97725.46;1761247;81;21483;-75
2021/10/16 05:14:31;;;;;;;38.25;23.15;;;;;;;7.62;91.64;97723.04;1746003;81;21055;-75
2021/10/16 05:16:57;;;;;;;35.95;20.95;;;;;;;7.65;91.21;97733.06;1740664;82;21047;-75
2021/10/16 05:19:24;;;;;;;36.38;21.45;;;;;;;7.67;91.30;97730.39;1740454;82;21408;-75
2021/10/16 05:21:51;;;;;;;34.25;20.55;;;;;;;7.71;91.22;97728.55;1737539;82;21017;-77
2021/10/16 05:24:17;;;;;;;32.25;20.12;;;;;;;7.75;91.15;97722.31;1737875;82;21058;-75
2021/10/16 05:26:45;;;;;;;30.68;19.62;;;;;;;7.80;91.21;97721.75;1740614;82;20983;-75
2021/10/16 05:29:11;;;;;;;31.37;20.02;;;;;;;7.84;91.11;97726.06;1740545;82;20994;-75
2021/10/16 05:31:38;;;;;;;32.88;20.40;;;;;;;7.87;90.97;97725.13;1740451;82;21037;-77
2021/10/16 05:34:05;;;;;;;33.18;20.37;;;;;;;7.86;91.10;97726.91;1740512;82;21011;-77
2021/10/16 05:36:31;;;;;;;31.97;20.05;;;;;;;7.88;91.01;97728.17;1740455;82;20972;-77
2021/10/16 05:38:59;;;;;;;33.98;21.37;;;;;;;7.87;90.59;97726.00;1740426;82;21320;-75
2021/10/16 05:41:26;;;;;;;34.48;20.10;;;;;;;7.89;90.75;97731.25;1740442;82;21038;-75
2021/10/16 05:43:52;;;;;;;35.23;21.20;;;;;;;7.92;90.72;97724.56;1740441;82;21643;-75
2021/10/16 05:46:19;;;;;;;34.05;21.12;;;;;;;7.94;90.67;97733.33;1740532;82;21003;-75
2021/10/16 05:48:45;;;;;;;36.03;21.52;;;;;;;7.91;90.81;97732.07;1740609;82;21055;-75
2021/10/16 05:51:12;;;;;;;34.48;21.42;;;;;;;7.87;90.87;97733.03;1740542;82;21030;-76
2021/10/16 05:53:39;;;;;;;37.83;21.70;;;;;;;7.88;90.43;97742.68;1740434;82;20998;-75
2021/10/16 05:56:07;;;;;;;40.83;22.65;;;;;;;7.86;90.47;97732.63;1740643;82;21025;-75
2021/10/16 05:58:38;;;;;;;34.27;21.93;;;;;;;7.82;91.14;97742.83;1740657;82;21038;-75
2021/10/16 06:01:05;;;;;;;34.80;21.95;;;;;;;7.83;91.33;97742.80;1740523;82;21007;-75
2021/10/16 06:03:33;;;;;;;37.38;24.18;;;;;;;7.88;90.82;97739.61;1740422;82;21018;-75
2021/10/16 06:06:00;;;;;;;36.48;23.67;;;;;;;7.94;90.82;97750.48;1740394;82;21019;-75
2021/10/16 06:08:27;;;;;;;35.80;23.90;;;;;;;7.96;90.44;97746.02;1740531;82;20971;-75
2021/10/16 06:10:54;;;;;;;37.70;23.47;;;;;;;7.97;90.57;97749.07;1740379;82;20979;-77
2021/10/16 06:13:21;;;;;;;35.03;22.20;;;;;;;8.01;90.62;97752.06;1740432;81;21046;-77
2021/10/16 06:15:48;;;;;;;33.02;20.43;;;;;;;8.06;90.12;97751.97;1740521;82;21548;-75
2021/10/16 06:18:15;;;;;;;36.95;23.87;;;;;;;8.01;92.00;97752.53;1740504;82;21010;-75
2021/10/16 06:20:42;;;;;;;34.65;21.65;;;;;;;8.03;91.04;97751.59;1740235;82;21051;-75
2021/10/16 06:23:09;;;;;;;34.38;22.07;;;;;;;8.05;90.49;97752.84;1740355;82;21034;-75
2021/10/16 06:25:36;;;;;;;36.60;23.05;;;;;;;8.02;90.80;97752.94;1740355;82;21061;-75
2021/10/16 06:28:03;;;;;;;38.17;23.12;;;;;;;8.02;90.39;97764.34;1740468;82;20998;-75
2021/10/16 06:30:30;;;;;;;37.03;23.07;;;;;;;7.99;91.38;97759.59;1740471;82;21058;-75
2021/10/16 06:32:57;;;;;;;39.40;21.90;;;;;;;8.03;90.84;97765.23;1740512;82;21037;-77
2021/10/16 06:35:24;;;;;;;37.90;24.67;;;;;;;8.05;90.84;97763.41;1740611;82;21433;-75
2021/10/16 06:37:51;;;;;;;35.68;22.13;;;;;;;8.05;91.28;97766.05;1740749;82;21014;-75
2021/10/16 06:40:18;;;;;;;34.98;22.15;;;;;;;8.08;90.74;97768.63;1740790;82;21576;-76
2021/10/16 06:42:46;;;;;;;38.90;24.67;;;;;;;8.13;91.28;97769.83;1740784;82;20991;-76
2021/10/16 06:45:23;;;;;;;45.83;29.07;;;;;;;8.17;92.11;97778.09;1677707;85;21106;-78
2021/10/16 06:47:52;;;;;;;48.90;31.62;;;;;;;8.18;91.38;97776.74;1742218;81;20986;-75
2021/10/16 06:50:22;;;;;;;47.15;32.03;;;;;;;8.22;91.09;97781.49;1737338;82;21468;-75
2021/10/16 06:52:48;;;;;;;48.13;31.42;;;;;;;8.24;91.11;97778.38;1740614;82;21010;-75
2021/10/16 06:55:15;;;;;;;51.28;32.67;;;;;;;8.23;91.83;97783.25;1740595;82;20995;-75
2021/10/16 06:57:42;;;;;;;45.08;28.70;;;;;;;8.27;91.05;97779.61;1740673;82;20971;-75
2021/10/16 07:00:09;;;;;;;39.67;24.95;;;;;;;8.35;90.66;97775.94;1737677;82;21018;-75
2021/10/16 07:02:36;;;;;;;38.60;22.25;;;;;;;8.43;90.59;97777.95;1740683;82;21357;-75
2021/10/16 07:05:05;;;;;;;34.33;21.25;;;;;;;8.49;90.75;97767.66;1740599;82;21038;-75
2021/10/16 07:07:32;;;;;;;33.80;20.82;;;;;;;8.57;90.59;97782.91;1740644;82;20982;-75
2021/10/16 07:10:00;;;;;;;33.23;20.45;;;;;;;8.64;90.62;97780.52;1740649;82;21039;-75
2021/10/16 07:12:27;;;;;;;32.30;19.73;;;;;;;8.68;90.88;97786.14;1740757;82;21061;-75
2021/10/16 07:14:54;;;;;;;28.32;18.23;;;;;;;8.70;90.41;97780.82;1759015;81;21017;-76
2021/10/16 07:17:20;;;;;;;29.42;17.02;;;;;;;8.73;90.35;97786.04;1769573;81;21462;-75
2021/10/16 07:19:50;;;;;;;29.90;18.37;;;;;;;8.82;90.22;97787.12;1769573;81;20998;-75
2021/10/16 07:22:15;;;;;;;30.82;18.55;;;;;;;8.88;89.96;97791.37;1768976;81;21041;-74
2021/10/16 07:24:41;;;;;;;32.78;18.85;;;;;;;8.95;90.19;97786.79;1769596;81;20982;-74
2021/10/16 07:27:08;;;;;;;31.70;19.15;;;;;;;9.05;90.03;97788.75;1769465;81;21487;-75
2021/10/16 07:29:34;;;;;;;25.60;17.17;;;;;;;9.12;90.01;97787.66;1769476;81;20978;-75
2021/10/16 07:32:01;;;;;;;27.30;17.90;;;;;;;9.18;88.85;97786.64;1769517;81;21002;-75
2021/10/16 07:34:27;;;;;;;28.10;18.60;;;;;;;9.23;89.30;97786.91;1769235;81;21021;-75
2021/10/16 07:36:54;;;;;;;31.55;19.92;;;;;;;9.23;88.38;97787.38;1739334;81;21416;-75
2021/10/16 07:39:20;;;;;;;30.52;18.85;;;;;;;9.23;88.70;97785.58;1769533;81;21029;-75
2021/10/16 07:41:47;;;;;;;31.02;20.27;;;;;;;9.25;88.70;97790.83;1769544;81;21396;-75
2021/10/16 07:44:15;;;;;;;26.05;16.57;;;;;;;9.27;88.34;97789.48;1769506;81;21036;-75
2021/10/16 07:46:44;;;;;;;30.92;17.90;;;;;;;9.29;88.60;97791.61;1769381;81;21392;-76
2021/10/16 07:49:11;;;;;;;28.98;19.07;;;;;;;9.29;87.94;97792.48;1769370;81;21442;-75
2021/10/16 07:51:38;;;;;;;25.32;17.07;;;;;;;9.27;87.56;97793.00;1769324;81;21459;-75
2021/10/16 07:54:06;;;;;;;25.30;16.20;;;;;;;9.23;87.84;97796.16;1768971;81;21022;-76
2021/10/16 07:56:32;;;;;;;22.05;14.50;;;;;;;9.23;87.48;97794.84;1769487;81;21439;-75
2021/10/16 07:58:59;;;;;;;22.70;14.30;;;;;;;9.23;87.58;97803.24;1769549;81;21045;-75
2021/10/16 08:01:26;;;;;;;22.22;15.10;;;;;;;9.24;87.33;97800.56;1769667;81;20989;-76
2021/10/16 08:03:52;;;;;;;21.57;14.23;;;;;;;9.25;87.68;97800.09;1769434;81;21006;-75
2021/10/16 08:06:20;;;;;;;20.90;13.60;;;;;;;9.28;87.59;97801.34;1769519;81;21005;-76
2021/10/16 08:08:47;;;;;;;22.40;14.78;;;;;;;9.23;87.23;97801.45;1769481;81;21094;-75
2021/10/16 08:11:15;;;;;;;23.42;14.87;;;;;;;9.23;86.97;97813.34;1767976;81;21021;-76
2021/10/16 08:13:42;;;;;;;24.85;16.05;;;;;;;9.21;86.97;97809.01;1769207;81;21017;-76
2021/10/16 08:16:10;;;;;;;22.05;14.50;;;;;;;9.22;87.25;97810.30;1761285;81;21014;-76
2021/10/16 08:18:37;;;;;;;21.62;15.08;;;;;;;9.27;87.45;97810.62;1761039;81;21572;-76
2021/10/16 08:21:04;;;;;;;23.98;15.05;;;;;;;9.29;87.44;97812.33;1761480;81;20966;-75
2021/10/16 08:23:30;;;;;;;22.02;15.00;;;;;;;9.28;87.21;97813.68;1761132;81;21017;-75
2021/10/16 08:26:00;;;;;;;19.82;13.88;;;;;;;9.29;87.20;97823.34;1761421;81;20970;-76
2021/10/16 08:28:28;;;;;;;23.32;14.85;;;;;;;9.32;87.19;97819.30;1761226;81;21025;-75
2021/10/16 08:30:55;;;;;;;22.42;14.10;;;;;;;9.34;87.04;97818.36;1761166;81;21015;-75
2021/10/16 08:33:24;;;;;;;20.72;13.35;;;;;;;9.34;87.42;97822.32;1761215;81;21014;-75
2021/10/16 08:35:50;;;;;;;18.70;12.88;;;;;;;9.33;87.63;97825.00;1761252;81;21479;-75
2021/10/16 08:38:18;;;;;;;18.30;11.75;;;;;;;9.29;87.09;97826.87;1761209;81;21010;-74
2021/10/16 08:40:45;;;;;;;18.73;13.22;;;;;;;9.31;87.02;97828.16;1761270;81;21009;-75
2021/10/16 08:43:12;;;;;;;18.40;12.90;;;;;;;9.31;86.75;97826.83;1761184;81;21050;-75
2021/10/16 08:45:39;;;;;;;17.07;11.22;;;;;;;9.28;87.69;97821.17;1761168;81;21459;-75
2021/10/16 08:48:07;;;;;;;14.90;9.58;;;;;;;9.30;87.10;97821.14;1761261;81;21008;-75
2021/10/16 08:50:35;;;;;;;13.88;10.13;;;;;;;9.28;87.11;97826.46;1761181;81;21053;-76
2021/10/16 08:53:03;;;;;;;15.95;10.70;;;;;;;9.30;86.73;97826.42;1760932;81;21042;-76
2021/10/16 08:55:30;;;;;;;17.00;11.28;;;;;;;9.32;86.99;97824.16;1761214;81;21021;-75
2021/10/16 08:57:57;;;;;;;15.43;9.80;;;;;;;9.36;86.80;97817.00;1761278;81;20970;-75
2021/10/16 09:00:52;;;;;;;13.48;9.53;;;;;;;9.40;86.50;97819.09;1761151;81;21006;-75
2021/10/16 09:03:25;;;;;;;;;;;;;;;9.45;86.19;97815.86;1763919;81;20981;-75
2021/10/16 09:06:20;;;;;;;15.13;9.95;;;;;;;9.49;86.38;97822.80;1761146;81;20168;-76
2021/10/16 09:08:55;;;;;;;14.35;9.55;;;;;;;9.51;86.06;97823.66;1761254;81;21515;-76
2021/10/16 09:11:36;;;;;;;16.32;10.18;;;;;;;9.45;86.31;97822.03;1761273;81;20985;-76
2021/10/16 09:14:21;;;;;;;14.00;9.50;;;;;;;9.51;86.32;97813.06;1724421;81;21562;-76
2021/10/16 09:17:00;;;;;;;17.25;10.58;;;;;;;9.50;86.69;97805.58;1761215;81;20998;-76
2021/10/16 09:19:38;;;;;;;18.37;11.48;;;;;;;9.55;86.29;97811.20;1761214;81;21037;-76
2021/10/16 09:22:12;;;;;;;18.52;12.20;;;;;;;9.61;86.59;97811.89;1761373;81;21412;-76
2021/10/16 09:24:45;;;;;;;14.35;10.58;;;;;;;9.67;86.39;97816.59;1761419;81;21451;-76
2021/10/16 09:27:16;;;;;;;17.52;11.33;;;;;;;9.71;85.62;97823.54;1761238;81;20997;-76
2021/10/16 09:29:46;;;;;;;15.70;10.23;;;;;;;9.80;86.07;97827.21;1761196;81;21100;-76
2021/10/16 09:32:18;;;;;;;15.90;10.30;;;;;;;9.88;85.64;97824.34;1761245;81;21049;-76
2021/10/16 09:34:47;;;;;;;15.20;10.38;;;;;;;9.94;85.28;97817.56;1759665;81;20998;-76
2021/10/16 09:37:20;;;;;;;16.67;11.20;;;;;;;9.99;84.54;97819.61;1761191;81;21009;-76
2021/10/16 09:39:57;;;;;;;16.93;10.18;;;;;;;10.06;84.52;97818.09;1761399;81;21002;-76
2021/10/16 09:42:40;;;;;;;18.15;9.95;;;;;;;10.13;82.61;97824.48;1761653;81;21056;-75
2021/10/16 09:45:11;;;;;;;15.25;10.20;;;;;;;10.20;83.45;97811.04;1761503;81;20983;-75
2021/10/16 09:47:38;;;;;;;14.15;9.45;;;;;;;10.29;83.78;97818.70;1761443;81;21026;-77
2021/10/16 09:50:09;;;;;;;17.02;11.12;;;;;;;10.38;83.47;97825.04;1735916;81;20927;-77
2021/10/16 09:52:42;;;;;;;15.20;10.32;;;;;;;10.48;83.35;97821.69;1761307;81;20983;-77
2021/10/16 09:55:14;;;;;;;15.53;10.55;;;;;;;10.58;83.62;97816.94;1761208;81;21037;-77
2021/10/16 09:57:44;;;;;;;13.20;9.43;;;;;;;10.68;81.92;97819.70;1761326;81;21030;-77
2021/10/16 10:00:14;;;;;;;14.90;9.60;;;;;;;10.65;79.75;97814.52;1761361;81;20984;-77
2021/10/16 10:02:48;;;;;;;13.05;9.35;;;;;;;10.74;80.39;97822.61;1761195;81;21053;-77
2021/10/16 10:05:14;;;;;;;13.80;9.35;;;;;;;10.82;80.22;97815.73;1761383;81;20998;-77
2021/10/16 10:07:41;;;;;;;21.17;14.25;;;;;;;10.85;77.33;97814.76;1761220;81;20998;-77
2021/10/16 10:10:08;;;;;;;12.80;8.95;;;;;;;10.91;78.47;97807.91;1761309;81;21037;-77
2021/10/16 10:12:37;;;;;;;14.35;9.45;;;;;;;10.96;78.44;97806.84;1761744;81;20986;-77
2021/10/16 10:15:05;;;;;;;13.75;8.80;;;;;;;11.02;75.21;97808.88;1737718;81;21058;-77
2021/10/16 10:17:34;;;;;;;12.90;8.70;;;;;;;11.07;75.76;97809.14;1769615;81;21009;-77
2021/10/16 10:20:09;;;;;;;11.78;8.93;;;;;;;11.17;76.74;97800.86;1769562;81;21485;-77
2021/10/16 10:22:37;;;;;;;13.53;8.85;;;;;;;11.30;77.95;97804.80;1768692;81;21002;-77
2021/10/16 10:25:23;;;;;;;14.63;8.83;;;;;;;11.44;76.30;97796.36;1769453;81;20974;-77
2021/10/16 10:27:51;;;;;;;12.82;8.65;;;;;;;11.48;74.28;97801.96;1769699;81;20977;-77
2021/10/16 10:30:40;;;;;;;12.45;8.83;;;;;;;11.47;71.99;97798.87;1769504;81;21014;-77
2021/10/16 10:33:20;;;;;;;12.10;7.62;;;;;;;11.54;75.18;97800.00;1769549;81;21010;-77
2021/10/16 10:36:07;;;;;;;11.63;7.50;;;;;;;11.56;74.19;97796.82;1769513;81;20978;-78
2021/10/16 10:38:39;;;;;;;9.65;7.47;;;;;;;11.66;73.04;97798.20;1769409;81;21045;-77
2021/10/16 10:41:30;;;;;;;9.30;7.22;;;;;;;11.70;73.68;97793.64;1769449;81;21057;-78
2021/10/16 10:43:57;;;;;;;9.95;6.83;;;;;;;11.79;73.70;97784.48;1769322;81;21017;-78
2021/10/16 10:46:25;;;;;;;10.23;6.97;;;;;;;11.72;70.63;97797.97;1769444;81;21045;-77
2021/10/16 10:48:52;;;;;;;10.32;8.00;;;;;;;11.68;70.85;97789.75;1769457;81;21013;-78
2021/10/16 10:51:38;;;;;;;9.35;7.30;;;;;;;11.72;70.91;97793.98;1769334;81;21451;-77
2021/10/16 10:54:18;;;;;;;13.25;9.95;;;;;;;11.71;70.03;97795.40;1769395;81;21017;-77
2021/10/16 10:56:52;;;;;;;11.20;7.22;;;;;;;11.54;70.30;97790.23;1769448;81;20982;-77
2021/10/16 10:59:18;;;;;;;10.35;7.12;;;;;;;11.36;69.32;97793.11;1768870;81;20990;-78
2021/10/16 11:01:58;;;;;;;9.58;7.20;;;;;;;11.38;69.96;97796.55;1769575;81;20998;-78
2021/10/16 11:04:43;;;;;;;12.70;7.35;;;;;;;11.47;70.70;97790.07;1769636;81;20970;-77
2021/10/16 11:07:14;;;;;;;10.70;7.25;;;;;;;11.42;69.93;97789.38;1769579;81;21010;-78
2021/10/16 11:09:42;;;;;;;9.88;7.40;;;;;;;11.47;70.63;97776.80;1769185;81;21072;-78
2021/10/16 11:12:10;;;;;;;9.73;6.72;;;;;;;11.39;68.84;97786.82;1769397;81;21021;-77
2021/10/16 11:14:40;;;;;;;10.10;7.65;;;;;;;11.37;70.27;97781.56;1767071;81;20994;-78
2021/10/16 11:17:14;;;;;;;9.23;6.85;;;;;;;11.39;69.72;97788.15;1740739;82;21014;-77
2021/10/16 11:19:55;;;;;;;8.73;6.70;;;;;;;11.38;69.47;97779.79;1740395;82;21495;-78
2021/10/16 11:22:42;;;;;;;9.08;6.87;;;;;;;11.39;69.79;97778.41;1740736;82;21219;-78
2021/10/16 11:25:15;;;;;;;10.03;7.33;;;;;;;11.41;70.04;97775.23;1740703;82;20990;-78
2021/10/16 11:27:42;;;;;;;9.40;6.95;;;;;;;11.50;70.61;97775.34;1739621;82;21037;-78
2021/10/16 11:30:18;;;;;;;9.98;6.80;;;;;;;11.44;69.17;97776.91;1740545;82;20995;-78
2021/10/16 11:32:44;;;;;;;9.98;6.65;;;;;;;11.49;70.23;97771.84;1740501;82;21022;-78
2021/10/16 11:35:11;;;;;;;8.35;6.60;;;;;;;11.48;68.91;97772.77;1740395;82;21447;-78